Time;durP1;ratioP1;P1;durP2;ratioP2;P2;SDS_P1;SDS_P2;PMS_P1;PMS_P2;Temp;Humidity;BMP_temperature;BMP_pressure;BME280_temperature;BME280_humidity;BME280_pressure;Samples;Min_cycle;Max_cycle;Signal;HPM_P1;HPM_P2
2021/04/15 00:00:41;;;;;;;5.17;4.67;;;;;21.40;101828.00;;;;2077112;28;20208;-48
2021/04/15 00:01:41;;;;;;;5.95;5.07;;;;;21.40;101825.00;;;;2072806;28;20215;-51
2021/04/15 00:02:42;;;;;;;4.83;4.37;;;;;21.40;101825.00;;;;2070122;28;20204;-49
2021/04/15 00:03:42;;;;;;;5.67;5.17;;;;;21.40;101834.00;;;;2069518;28;20284;-49
2021/04/15 00:04:42;;;;;;;4.17;3.77;;;;;21.40;101832.00;;;;2068710;28;20220;-49
2021/04/15 00:05:43;;;;;;;4.67;4.27;;;;;21.40;101829.00;;;;2068559;28;20570;-49
2021/04/15 00:06:43;;;;;;;5.27;4.77;;;;;21.40;101825.00;;;;2069826;28;20622;-48
2021/04/15 00:07:44;;;;;;;5.03;4.40;;;;;21.30;101831.00;;;;2071600;28;21069;-48
2021/04/15 00:08:44;;;;;;;5.77;4.87;;;;;21.30;101825.00;;;;2068924;28;20215;-48
2021/04/15 00:09:45;;;;;;;4.97;4.47;;;;;21.30;101824.00;;;;2069586;28;20236;-48
2021/04/15 00:10:47;;;;;;;4.50;4.10;;;;;21.30;101827.00;;;;2069472;28;20219;-49
2021/04/15 00:11:48;;;;;;;4.40;4.00;;;;;21.30;101829.00;;;;2064896;28;20852;-48
2021/04/15 00:12:48;;;;;;;5.60;4.50;;;;;21.30;101826.00;;;;2068936;28;20297;-49
2021/04/15 00:13:50;;;;;;;5.20;4.50;;;;;21.30;101829.00;;;;2066724;28;20228;-52
2021/04/15 00:14:50;;;;;;;5.00;4.50;;;;;21.30;101827.00;;;;2071285;28;20568;-49
2021/04/15 00:15:51;;;;;;;5.07;4.57;;;;;21.30;101826.00;;;;2071397;28;20216;-49
2021/04/15 00:16:51;;;;;;;5.10;4.60;;;;;21.30;101822.00;;;;2070649;28;20236;-47
2021/04/15 00:17:52;;;;;;;4.57;4.13;;;;;21.30;101820.00;;;;2077015;28;20302;-49
2021/04/15 00:18:52;;;;;;;4.53;4.13;;;;;21.30;101824.00;;;;2069609;28;20235;-48
2021/04/15 00:19:52;;;;;;;4.50;4.10;;;;;21.30;101823.00;;;;2069577;28;20218;-49
2021/04/15 00:20:53;;;;;;;3.90;3.60;;;;;21.30;101819.00;;;;2073515;28;20215;-49
2021/04/15 00:21:53;;;;;;;4.43;4.03;;;;;21.30;101823.00;;;;2077043;28;20262;-48
2021/04/15 00:22:54;;;;;;;4.23;3.83;;;;;21.20;101817.00;;;;2077818;28;20212;-48
2021/04/15 00:23:54;;;;;;;5.50;4.37;;;;;21.20;101818.00;;;;2077670;28;20210;-46
2021/04/15 00:24:54;;;;;;;4.30;3.90;;;;;21.20;101817.00;;;;2076710;28;20219;-48
2021/04/15 00:25:55;;;;;;;4.60;4.20;;;;;21.20;101820.00;;;;2072788;28;20212;-49
2021/04/15 00:26:55;;;;;;;4.40;4.00;;;;;21.30;101819.00;;;;2070238;28;20294;-48
2021/04/15 00:27:55;;;;;;;4.17;3.77;;;;;21.20;101828.00;;;;2070298;28;20291;-49
2021/04/15 00:28:56;;;;;;;4.10;3.70;;;;;21.30;101823.00;;;;2070915;28;20223;-47
2021/04/15 00:29:56;;;;;;;4.20;3.90;;;;;21.20;101817.00;;;;2069922;28;20219;-48
2021/04/15 00:30:57;;;;;;;4.33;3.93;;;;;21.20;101824.00;;;;2069373;28;20219;-49
2021/04/15 00:31:57;;;;;;;4.50;3.70;;;;;21.20;101822.00;;;;2070108;28;20314;-49
2021/04/15 00:32:57;;;;;;;4.50;3.27;;;;;21.20;101819.00;;;;2068377;28;20227;-49
2021/04/15 00:33:58;;;;;;;4.50;3.63;;;;;21.20;101821.00;;;;2070931;28;20302;-49
2021/04/15 00:34:58;;;;;;;4.13;3.80;;;;;21.20;101823.00;;;;2070586;28;20223;-48
2021/04/15 00:35:59;;;;;;;3.80;3.40;;;;;21.20;101822.00;;;;2067986;28;20676;-49
2021/04/15 00:36:59;;;;;;;3.60;3.30;;;;;21.20;101819.00;;;;2071017;28;20548;-48
2021/04/15 00:37:59;;;;;;;3.87;3.50;;;;;21.20;101823.00;;;;2070086;28;20214;-49
2021/04/15 00:39:00;;;;;;;4.70;3.80;;;;;21.20;101818.00;;;;2069398;28;20219;-49
2021/04/15 00:40:00;;;;;;;4.17;3.87;;;;;21.20;101820.00;;;;2070789;28;20234;-48
2021/04/15 00:41:00;;;;;;;4.77;3.40;;;;;21.20;101820.00;;;;2070878;28;20621;-48
2021/04/15 00:42:01;;;;;;;3.73;3.43;;;;;21.20;101819.00;;;;2077092;28;20313;-47
2021/04/15 00:43:01;;;;;;;3.90;3.60;;;;;21.20;101817.00;;;;2079109;28;20293;-49
2021/04/15 00:44:03;;;;;;;3.40;3.10;;;;;21.20;101812.00;;;;2076071;28;20570;-49
2021/04/15 00:45:24;;;;;;;3.70;3.17;;;;;21.10;101820.00;;;;2070476;28;20254;-49
2021/04/15 00:46:37;;;;;;;3.65;3.28;;;;;21.20;101814.00;;;;2073856;28;20222;-48
2021/04/15 00:47:37;;;;;;;3.55;3.28;;;;;21.20;101817.00;;;;2070870;28;20211;-48
2021/04/15 00:48:39;;;;;;;3.10;2.90;;;;;21.10;101805.00;;;;2070838;28;20689;-47
2021/04/15 00:49:52;;;;;;;3.70;3.40;;;;;21.10;101811.00;;;;2061467;28;20640;-49
2021/04/15 00:50:59;;;;;;;3.00;2.80;;;;;21.20;101811.00;;;;2061459;28;20208;-50
2021/04/15 00:52:02;;;;;;;3.33;3.00;;;;;21.10;101811.00;;;;2071101;28;20215;-49
2021/04/15 00:53:04;;;;;;;3.63;3.10;;;;;21.10;101807.00;;;;2078425;28;20609;-48
2021/04/15 00:54:11;;;;;;;3.38;3.08;;;;;21.10;101810.00;;;;2070650;28;20231;-48
2021/04/15 00:55:13;;;;;;;3.10;2.80;;;;;21.10;101809.00;;;;2077300;28;20228;-47
2021/04/15 00:56:13;;;;;;;3.70;3.17;;;;;21.00;101809.00;;;;2070179;28;20227;-49
2021/04/15 00:57:18;;;;;;;3.30;3.00;;;;;21.10;101812.00;;;;2070557;28;20219;-48
2021/04/15 00:58:18;;;;;;;3.60;3.30;;;;;21.10;101814.00;;;;2070218;28;20254;-46
2021/04/15 00:59:18;;;;;;;3.30;3.00;;;;;21.10;101810.00;;;;2069886;28;20645;-49
2021/04/15 01:00:23;;;;;;;3.27;2.97;;;;;21.10;101811.00;;;;2067830;28;20591;-48
2021/04/15 01:01:24;;;;;;;3.30;3.00;;;;;21.10;101803.00;;;;2069535;28;20222;-49
2021/04/15 01:02:24;;;;;;;3.50;3.20;;;;;21.10;101807.00;;;;2078890;28;20301;-48
2021/04/15 01:03:25;;;;;;;3.87;3.47;;;;;21.10;101804.00;;;;2078411;28;20360;-49
2021/04/15 01:04:25;;;;;;;3.60;3.13;;;;;21.10;101802.00;;;;2078276;28;20453;-49
2021/04/15 01:05:27;;;;;;;2.80;2.60;;;;;21.10;101800.00;;;;2078027;28;20224;-49
2021/04/15 01:06:28;;;;;;;3.00;2.80;;;;;21.10;101801.00;;;;2078971;28;20217;-48
2021/04/15 01:07:28;;;;;;;3.33;3.03;;;;;21.10;101799.00;;;;2076400;28;20222;-48
2021/04/15 01:08:28;;;;;;;4.03;3.00;;;;;21.10;101800.00;;;;2070247;28;20669;-49
2021/04/15 01:09:29;;;;;;;3.33;3.03;;;;;21.10;101804.00;;;;2070457;28;20317;-49
2021/04/15 01:10:31;;;;;;;3.70;3.40;;;;;21.00;101800.00;;;;2075872;28;20222;-49
2021/04/15 01:11:42;;;;;;;3.28;2.88;;;;;21.00;101807.00;;;;2070387;28;20215;-49
2021/04/15 01:13:00;;;;;;;3.35;3.13;;;;;21.10;101802.00;;;;2067855;28;20207;-49
2021/04/15 01:14:08;;;;;;;3.17;2.67;;;;;21.00;101800.00;;;;2075490;28;20249;-48
2021/04/15 01:15:13;;;;;;;3.05;2.75;;;;;21.00;101794.00;;;;2075437;28;20229;-49
2021/04/15 01:16:25;;;;;;;2.92;2.65;;;;;21.00;101800.00;;;;2073141;28;20275;-49
2021/04/15 01:17:46;;;;;;;2.72;2.47;;;;;21.00;101798.00;;;;2068529;28;20367;-49
2021/04/15 01:18:50;;;;;;;3.20;2.90;;;;;21.00;101793.00;;;;2078243;28;20574;-49
2021/04/15 01:20:11;;;;;;;3.15;2.85;;;;;21.00;101800.00;;;;2073974;28;20214;-49
2021/04/15 01:21:48;;;;;;;2.78;2.58;;;;;21.00;101793.00;;;;2072592;28;20211;-49
2021/04/15 01:23:21;;;;;;;2.97;2.58;;;;;21.00;101800.00;;;;2069626;28;20206;-48
2021/04/15 01:24:41;;;;;;;3.70;3.40;;;;;21.00;101799.00;;;;2077630;28;20932;-49
2021/04/15 01:25:52;;;;;;;3.35;3.05;;;;;21.00;101796.00;;;;2071594;28;20671;-49
2021/04/15 01:27:23;;;;;;;2.83;2.58;;;;;21.00;101796.00;;;;2070909;28;20216;-48
2021/04/15 01:28:23;;;;;;;2.75;2.55;;;;;21.00;101800.00;;;;2063416;28;20248;-49
2021/04/15 01:29:36;;;;;;;2.37;2.17;;;;;21.00;101804.00;;;;2071955;28;20578;-48
2021/04/15 01:30:37;;;;;;;2.72;2.53;;;;;21.00;101805.00;;;;2078611;28;20233;-48
2021/04/15 01:31:58;;;;;;;3.08;2.78;;;;;21.00;101799.00;;;;2077677;28;20254;-49
2021/04/15 01:33:21;;;;;;;2.85;2.42;;;;;21.00;101801.00;;;;2076520;28;21244;-46
2021/04/15 01:34:53;;;;;;;2.72;2.53;;;;;21.00;101795.00;;;;2077883;28;20233;-49
2021/04/15 01:36:00;;;;;;;3.28;2.80;;;;;21.00;101796.00;;;;2070866;28;20322;-47
2021/04/15 01:37:03;;;;;;;2.80;2.40;;;;;20.90;101800.00;;;;2066577;28;20217;-49
2021/04/15 01:38:20;;;;;;;3.88;2.90;;;;;21.00;101799.00;;;;2069314;28;20571;-49
2021/04/15 01:39:24;;;;;;;2.78;2.58;;;;;21.00;101793.00;;;;2071932;28;20313;-49
2021/04/15 01:40:40;;;;;;;2.88;2.65;;;;;21.00;101791.00;;;;2061996;28;20302;-48
2021/04/15 01:41:51;;;;;;;3.78;2.85;;;;;21.00;101801.00;;;;2064767;28;20293;-50
2021/04/15 01:42:54;;;;;;;2.83;2.60;;;;;20.90;101807.00;;;;2068131;28;20217;-49
2021/04/15 01:43:56;;;;;;;3.03;2.75;;;;;20.90;101800.00;;;;2061894;28;20306;-48
2021/04/15 01:44:58;;;;;;;2.78;2.58;;;;;20.90;101798.00;;;;2068286;28;20646;-49
2021/04/15 01:45:58;;;;;;;3.15;2.80;;;;;20.90;101797.00;;;;2072142;28;20220;-49
2021/04/15 01:47:01;;;;;;;2.37;2.17;;;;;20.90;101805.00;;;;2071429;28;20230;-47
2021/04/15 01:48:11;;;;;;;3.30;2.53;;;;;20.90;101800.00;;;;2070360;28;20220;-49
2021/04/15 01:49:12;;;;;;;3.92;2.90;;;;;20.90;101798.00;;;;2066417;28;20250;-49
2021/04/15 01:50:21;;;;;;;2.80;2.60;;;;;20.90;101801.00;;;;2069280;28;20216;-49
2021/04/15 01:51:28;;;;;;;3.10;2.58;;;;;20.90;101802.00;;;;2069540;28;20227;-50
2021/04/15 01:52:29;;;;;;;2.67;2.47;;;;;20.90;101794.00;;;;2061281;28;20279;-48
2021/04/15 01:53:33;;;;;;;2.57;2.37;;;;;20.90;101802.00;;;;2061724;28;20220;-49
2021/04/15 01:54:35;;;;;;;2.70;2.50;;;;;20.90;101802.00;;;;2061925;28;20609;-47
2021/04/15 01:55:41;;;;;;;2.95;2.75;;;;;20.90;101802.00;;;;2066834;28;21274;-49
2021/04/15 01:57:00;;;;;;;3.50;2.65;;;;;20.90;101803.00;;;;2078140;28;20248;-49
2021/04/15 01:58:18;;;;;;;3.22;2.65;;;;;20.90;101810.00;;;;2078127;28;20206;-48
2021/04/15 01:59:35;;;;;;;3.10;2.78;;;;;20.90;101808.00;;;;2069668;28;20223;-49
2021/04/15 02:00:36;;;;;;;2.95;2.75;;;;;20.90;101796.00;;;;2073027;28;20227;-49
2021/04/15 02:01:48;;;;;;;2.67;2.47;;;;;20.90;101811.00;;;;2069276;28;20219;-49
2021/04/15 02:03:10;;;;;;;3.47;2.50;;;;;20.90;101806.00;;;;2066637;28;20566;-49
2021/04/15 02:04:13;;;;;;;3.42;2.92;;;;;20.90;101808.00;;;;2071669;28;20293;-49
2021/04/15 02:05:13;;;;;;;3.00;2.50;;;;;20.80;101805.00;;;;2074956;28;20593;-48
2021/04/15 02:06:21;;;;;;;2.70;2.50;;;;;20.80;101800.00;;;;2069968;28;20231;-48
2021/04/15 02:07:21;;;;;;;3.15;2.85;;;;;20.80;101810.00;;;;2061803;28;20599;-48
2021/04/15 02:08:23;;;;;;;2.63;2.43;;;;;20.80;101801.00;;;;2062042;28;20223;-49
2021/04/15 02:09:24;;;;;;;2.53;2.33;;;;;20.80;101802.00;;;;2051753;28;21029;-50
2021/04/15 02:10:24;;;;;;;2.80;2.60;;;;;20.80;101798.00;;;;2045295;28;20277;-49
2021/04/15 02:11:43;;;;;;;3.20;2.90;;;;;20.80;101800.00;;;;2052928;28;20721;-49
2021/04/15 02:12:46;;;;;;;2.90;2.60;;;;;20.80;101807.00;;;;2067499;28;20361;-49
2021/04/15 02:13:47;;;;;;;2.90;2.70;;;;;20.80;101805.00;;;;2068809;28;20211;-49
2021/04/15 02:14:53;;;;;;;3.10;2.90;;;;;20.80;101798.00;;;;2071639;28;20231;-49
2021/04/15 02:16:03;;;;;;;3.08;2.70;;;;;20.80;101801.00;;;;2060088;28;20215;-47
2021/04/15 02:17:04;;;;;;;2.90;2.70;;;;;20.80;101807.00;;;;2055890;28;20273;-47
2021/04/15 02:18:06;;;;;;;3.13;2.83;;;;;20.80;101806.00;;;;2061628;28;20255;-47
2021/04/15 02:19:12;;;;;;;3.20;2.90;;;;;20.80;101807.00;;;;2058300;28;20212;-49
2021/04/15 02:20:24;;;;;;;3.03;2.60;;;;;20.80;101799.00;;;;2053872;28;20700;-49
2021/04/15 02:21:44;;;;;;;2.63;2.42;;;;;20.80;101806.00;;;;2067929;28;20224;-49
2021/04/15 02:23:00;;;;;;;2.70;2.50;;;;;20.80;101805.00;;;;2063338;28;20231;-47
2021/04/15 02:24:05;;;;;;;2.70;2.50;;;;;20.80;101809.00;;;;2073691;28;20218;-47
2021/04/15 02:25:15;;;;;;;3.00;2.63;;;;;20.80;101812.00;;;;2068696;28;20936;-48
2021/04/15 02:26:22;;;;;;;5.07;2.70;;;;;20.80;101800.00;;;;2070997;28;20215;-47
2021/04/15 02:27:29;;;;;;;2.40;2.20;;;;;20.80;101811.00;;;;2069390;28;20223;-47
2021/04/15 02:29:16;;;;;;;2.95;2.70;;;;;20.80;101807.00;;;;2070671;28;20296;-49
2021/04/15 02:30:49;;;;;;;2.50;2.30;;;;;20.80;101807.00;;;;2062146;28;20230;-48
2021/04/15 02:31:52;;;;;;;2.50;2.30;;;;;20.80;101804.00;;;;2060407;28;20223;-49
2021/04/15 02:33:03;;;;;;;2.40;2.20;;;;;20.70;101806.00;;;;2065176;28;20214;-49
2021/04/15 02:34:08;;;;;;;3.15;2.72;;;;;20.70;101798.00;;;;2056484;28;20215;-49
2021/04/15 02:35:24;;;;;;;2.45;2.25;;;;;20.80;101807.00;;;;2060393;28;21110;-48
2021/04/15 02:36:25;;;;;;;2.30;2.10;;;;;20.80;101795.00;;;;2067152;28;20299;-48
2021/04/15 02:37:31;;;;;;;3.28;2.97;;;;;20.70;101799.00;;;;2069166;28;20343;-49
2021/04/15 02:38:35;;;;;;;2.70;2.50;;;;;20.70;101804.00;;;;2068203;28;20305;-52
2021/04/15 02:39:38;;;;;;;2.60;2.40;;;;;20.70;101804.00;;;;2066715;28;20226;-49
2021/04/15 02:40:42;;;;;;;3.38;2.78;;;;;20.70;101802.00;;;;2069124;28;20715;-48
2021/04/15 02:41:42;;;;;;;2.80;2.58;;;;;20.70;101810.00;;;;2062234;28;20214;-49
2021/04/15 02:42:42;;;;;;;2.93;2.67;;;;;20.70;101795.00;;;;2068647;28;20208;-48
2021/04/15 02:43:49;;;;;;;2.83;2.63;;;;;20.70;101798.00;;;;2077253;28;20692;-49
2021/04/15 02:44:53;;;;;;;2.70;2.50;;;;;20.70;101800.00;;;;2067769;28;20638;-48
2021/04/15 02:45:54;;;;;;;2.67;2.47;;;;;20.70;101810.00;;;;2060522;28;20230;-49
2021/04/15 02:46:56;;;;;;;2.60;2.40;;;;;20.70;101803.00;;;;2054397;28;20297;-49
2021/04/15 02:47:59;;;;;;;2.60;2.40;;;;;20.70;101805.00;;;;2045854;28;20553;-48
2021/04/15 02:49:01;;;;;;;2.88;2.45;;;;;20.70;101803.00;;;;2050250;28;20223;-49
2021/04/15 02:50:02;;;;;;;3.13;2.78;;;;;20.70;101809.00;;;;2060144;28;20220;-49
2021/04/15 02:51:06;;;;;;;2.70;2.45;;;;;20.70;101814.00;;;;2061025;28;20282;-48
2021/04/15 02:52:26;;;;;;;3.15;2.95;;;;;20.70;101805.00;;;;2069004;28;20974;-49
2021/04/15 02:53:28;;;;;;;3.03;2.72;;;;;20.70;101809.00;;;;2072389;28;20236;-49
2021/04/15 02:54:33;;;;;;;2.72;2.50;;;;;20.70;101806.00;;;;2060830;28;20219;-46
2021/04/15 02:55:46;;;;;;;2.85;2.60;;;;;20.70;101810.00;;;;2064837;28;20220;-49
2021/04/15 02:56:51;;;;;;;2.60;2.40;;;;;20.70;101809.00;;;;2068493;28;20206;-49
2021/04/15 02:57:54;;;;;;;2.90;2.70;;;;;20.70;101802.00;;;;2055056;28;20219;-49
2021/04/15 02:59:01;;;;;;;2.67;2.47;;;;;20.70;101805.00;;;;2061210;28;20647;-47
2021/04/15 03:00:13;;;;;;;2.88;2.58;;;;;20.60;101814.00;;;;2053969;28;20216;-49
2021/04/15 03:01:15;;;;;;;2.60;2.40;;;;;20.70;101801.00;;;;2051553;28;20208;-49
2021/04/15 03:02:19;;;;;;;2.83;2.50;;;;;20.60;101804.00;;;;2059296;28;20218;-49
2021/04/15 03:03:21;;;;;;;2.70;2.50;;;;;20.60;101796.00;;;;2065449;28;20568;-49
2021/04/15 03:04:22;;;;;;;2.80;2.50;;;;;20.60;101815.00;;;;2068806;28;20916;-49
2021/04/15 03:05:23;;;;;;;2.85;2.65;;;;;20.60;101803.00;;;;2064795;28;20680;-49
2021/04/15 03:06:33;;;;;;;2.55;2.25;;;;;20.60;101801.00;;;;2069259;28;20220;-48
2021/04/15 03:07:33;;;;;;;2.80;2.50;;;;;20.60;101797.00;;;;2062316;28;20294;-48
2021/04/15 03:08:34;;;;;;;2.90;2.60;;;;;20.60;101806.00;;;;2053973;28;20220;-49
2021/04/15 03:09:34;;;;;;;2.73;2.53;;;;;20.60;101807.00;;;;2069020;28;20642;-49
2021/04/15 03:10:38;;;;;;;2.47;2.27;;;;;20.60;101802.00;;;;2069328;28;20226;-48
2021/04/15 03:11:46;;;;;;;3.05;2.65;;;;;20.60;101804.00;;;;2055538;28;21114;-49
2021/04/15 03:12:49;;;;;;;3.08;2.63;;;;;20.60;101803.00;;;;2046262;28;20208;-49
2021/04/15 03:13:51;;;;;;;3.03;2.55;;;;;20.60;101801.00;;;;2057148;28;20588;-49
2021/04/15 03:15:11;;;;;;;2.97;2.45;;;;;20.60;101805.00;;;;2064017;28;20588;-49
2021/04/15 03:16:11;;;;;;;2.45;2.13;;;;;20.60;101803.00;;;;2070909;28;20349;-47
2021/04/15 03:17:12;;;;;;;2.43;2.23;;;;;20.60;101799.00;;;;2061192;28;20211;-49
2021/04/15 03:18:15;;;;;;;2.80;2.60;;;;;20.60;101810.00;;;;2059118;28;20215;-49
2021/04/15 03:19:37;;;;;;;3.10;2.80;;;;;20.60;101806.00;;;;2061612;28;20680;-48
2021/04/15 03:20:44;;;;;;;2.83;2.63;;;;;20.60;101801.00;;;;2070015;28;20220;-49
2021/04/15 03:21:51;;;;;;;2.72;2.53;;;;;20.60;101804.00;;;;2073799;28;20225;-48
2021/04/15 03:22:55;;;;;;;2.70;2.50;;;;;20.60;101806.00;;;;2069813;28;20214;-49
2021/04/15 03:23:56;;;;;;;2.83;2.63;;;;;20.60;101802.00;;;;2061594;28;20715;-48
2021/04/15 03:24:57;;;;;;;2.63;2.42;;;;;20.60;101807.00;;;;2069406;28;20222;-49
2021/04/15 03:25:58;;;;;;;2.97;2.55;;;;;20.60;101811.00;;;;2071458;28;20211;-48
2021/04/15 03:27:25;;;;;;;2.27;2.07;;;;;20.60;101813.00;;;;2061104;28;20220;-46
2021/04/15 03:28:36;;;;;;;2.63;2.42;;;;;20.60;101803.00;;;;2068166;28;20818;-48
2021/04/15 03:29:53;;;;;;;2.03;1.92;;;;;20.60;101814.00;;;;2060808;28;20753;-49
2021/04/15 03:30:57;;;;;;;2.97;2.50;;;;;20.50;101813.00;;;;2063268;28;20227;-47
2021/04/15 03:32:09;;;;;;;2.72;2.53;;;;;20.50;101805.00;;;;2060803;28;20294;-47
2021/04/15 03:33:13;;;;;;;2.35;2.15;;;;;20.50;101804.00;;;;2062822;28;20219;-55
2021/04/15 03:34:19;;;;;;;2.60;2.40;;;;;20.50;101811.00;;;;2068439;28;20276;-47
2021/04/15 03:35:25;;;;;;;2.70;2.50;;;;;20.50;101815.00;;;;2072875;28;20257;-49
2021/04/15 03:36:36;;;;;;;2.55;2.35;;;;;20.50;101812.00;;;;2077219;28;20222;-49
2021/04/15 03:37:50;;;;;;;2.55;2.20;;;;;20.50;101817.00;;;;2077238;28;20234;-49
2021/04/15 03:39:12;;;;;;;2.85;2.60;;;;;20.50;101817.00;;;;2071043;28;20206;-48
2021/04/15 03:40:13;;;;;;;2.60;2.40;;;;;20.50;101815.00;;;;2071545;28;20610;-49
2021/04/15 03:41:22;;;;;;;3.30;2.67;;;;;20.50;101817.00;;;;2068662;28;20218;-49
2021/04/15 03:42:29;;;;;;;2.47;2.20;;;;;20.50;101813.00;;;;2069296;28;20948;-48
2021/04/15 03:43:36;;;;;;;2.70;2.35;;;;;20.50;101816.00;;;;2061673;28;20576;-49
2021/04/15 03:44:40;;;;;;;3.05;2.75;;;;;20.50;101809.00;;;;2060149;28;20293;-48
2021/04/15 03:45:42;;;;;;;2.47;2.28;;;;;20.50;101814.00;;;;2050697;28;20217;-48
2021/04/15 03:46:53;;;;;;;2.38;2.17;;;;;20.50;101815.00;;;;2058338;28;20275;-49
2021/04/15 03:47:56;;;;;;;2.50;2.28;;;;;20.50;101821.00;;;;2068941;28;20211;-48
2021/04/15 03:49:21;;;;;;;3.03;1.90;;;;;20.50;101819.00;;;;2069204;28;20202;-47
2021/04/15 03:50:27;;;;;;;2.40;2.20;;;;;20.50;101823.00;;;;2072088;28;20737;-48
2021/04/15 03:51:31;;;;;;;2.42;2.22;;;;;20.50;101815.00;;;;2069663;28;20229;-49
2021/04/15 03:52:36;;;;;;;2.33;2.10;;;;;20.50;101820.00;;;;2060822;28;20226;-49
2021/04/15 03:53:44;;;;;;;4.18;2.30;;;;;20.50;101818.00;;;;2061292;28;20885;-49
2021/04/15 03:54:50;;;;;;;3.08;2.58;;;;;20.50;101820.00;;;;2054694;28;20223;-47
2021/04/15 03:55:56;;;;;;;2.63;2.40;;;;;20.50;101813.00;;;;2059954;28;20215;-48
2021/04/15 03:56:57;;;;;;;3.80;2.63;;;;;20.50;101818.00;;;;2060755;28;20565;-47
2021/04/15 03:58:01;;;;;;;2.40;2.20;;;;;20.50;101821.00;;;;2050376;28;20218;-49
2021/04/15 03:59:16;;;;;;;2.55;2.35;;;;;20.50;101822.00;;;;2060623;28;20714;-48
2021/04/15 04:00:18;;;;;;;2.40;2.20;;;;;20.40;101817.00;;;;2043185;28;20224;-49
2021/04/15 04:01:25;;;;;;;2.30;2.10;;;;;20.40;101819.00;;;;2061373;28;20747;-49
2021/04/15 04:02:44;;;;;;;2.60;2.40;;;;;20.40;101814.00;;;;2071467;28;20222;-48
2021/04/15 04:03:44;;;;;;;2.78;2.58;;;;;20.40;101824.00;;;;2073084;28;20224;-46
2021/04/15 04:04:56;;;;;;;2.10;2.00;;;;;20.40;101816.00;;;;2070759;28;20268;-46
2021/04/15 04:06:00;;;;;;;2.50;2.20;;;;;20.40;101821.00;;;;2056180;28;20470;-49
2021/04/15 04:07:03;;;;;;;2.65;2.45;;;;;20.40;101824.00;;;;2056041;28;20295;-48
2021/04/15 04:08:06;;;;;;;2.88;2.67;;;;;20.40;101834.00;;;;2063147;28;20210;-49
2021/04/15 04:09:32;;;;;;;2.50;2.30;;;;;20.40;101830.00;;;;2070549;28;20234;-47
2021/04/15 04:10:37;;;;;;;2.58;2.38;;;;;20.40;101833.00;;;;2065468;28;20222;-49
2021/04/15 04:11:38;;;;;;;2.33;2.13;;;;;20.40;101835.00;;;;2057405;28;20311;-49
2021/04/15 04:12:45;;;;;;;2.63;2.42;;;;;20.40;101835.00;;;;2062857;28;20727;-49
2021/04/15 04:13:47;;;;;;;3.00;2.70;;;;;20.40;101831.00;;;;2069673;28;20651;-48
2021/04/15 04:15:07;;;;;;;3.38;2.17;;;;;20.40;101838.00;;;;2074222;28;20321;-48
2021/04/15 04:16:15;;;;;;;2.85;2.47;;;;;20.40;101831.00;;;;2069168;28;22480;-49
2021/04/15 04:17:19;;;;;;;2.60;2.40;;;;;20.40;101830.00;;;;2063541;28;20810;-49
2021/04/15 04:18:24;;;;;;;2.20;2.10;;;;;20.40;101835.00;;;;2064066;28;20253;-48
2021/04/15 04:19:35;;;;;;;2.50;2.30;;;;;20.40;101828.00;;;;2070385;28;20222;-49
2021/04/15 04:20:37;;;;;;;2.83;2.63;;;;;20.40;101836.00;;;;2069402;28;20241;-48
2021/04/15 04:22:01;;;;;;;2.65;2.45;;;;;20.30;101833.00;;;;2070378;28;20215;-49
2021/04/15 04:23:08;;;;;;;2.80;2.50;;;;;20.40;101827.00;;;;2065223;28;20290;-49
2021/04/15 04:24:21;;;;;;;2.90;2.58;;;;;20.40;101828.00;;;;2053377;28;25238;-49
2021/04/15 04:25:38;;;;;;;2.63;2.42;;;;;20.40;101827.00;;;;2072883;28;20226;-48
2021/04/15 04:26:41;;;;;;;3.65;2.25;;;;;20.40;101828.00;;;;2078536;28;20260;-49
2021/04/15 04:27:48;;;;;;;3.25;2.50;;;;;20.30;101832.00;;;;2078437;28;20218;-48
2021/04/15 04:29:22;;;;;;;3.28;2.90;;;;;20.30;101835.00;;;;2069984;28;20206;-49
2021/04/15 04:30:26;;;;;;;2.85;2.55;;;;;20.30;101829.00;;;;2072662;28;20292;-49
2021/04/15 04:31:29;;;;;;;2.22;2.13;;;;;20.30;101830.00;;;;2070215;28;20234;-48
2021/04/15 04:32:29;;;;;;;2.92;2.65;;;;;20.30;101833.00;;;;2070951;28;20277;-49
2021/04/15 04:33:39;;;;;;;3.07;2.67;;;;;20.30;101828.00;;;;2064114;28;20270;-49
2021/04/15 04:34:39;;;;;;;2.92;2.63;;;;;20.30;101840.00;;;;2063481;28;20285;-47
2021/04/15 04:35:41;;;;;;;2.73;2.43;;;;;20.30;101831.00;;;;2074411;28;20214;-49
2021/04/15 04:36:41;;;;;;;2.80;2.50;;;;;20.30;101821.00;;;;2070139;28;20340;-48
2021/04/15 04:37:49;;;;;;;2.93;2.53;;;;;20.30;101830.00;;;;2054029;28;20212;-49
2021/04/15 04:38:53;;;;;;;2.53;2.00;;;;;20.30;101828.00;;;;2070992;28;20297;-49
2021/04/15 04:39:56;;;;;;;2.60;2.40;;;;;20.30;101834.00;;;;2070656;28;20692;-49
2021/04/15 04:40:57;;;;;;;2.40;2.20;;;;;20.30;101843.00;;;;2070415;28;20309;-48
2021/04/15 04:42:08;;;;;;;2.90;2.40;;;;;20.30;101834.00;;;;2070142;28;20210;-49
2021/04/15 04:43:10;;;;;;;2.90;2.70;;;;;20.30;101839.00;;;;2062918;28;20207;-49
2021/04/15 04:44:13;;;;;;;2.75;2.55;;;;;20.30;101840.00;;;;2059476;28;20214;-49
2021/04/15 04:45:16;;;;;;;3.03;2.72;;;;;20.30;101837.00;;;;2057203;28;20289;-49
2021/04/15 04:46:28;;;;;;;4.55;2.47;;;;;20.30;101843.00;;;;2070582;28;20210;-48
2021/04/15 04:47:46;;;;;;;2.72;2.53;;;;;20.30;101835.00;;;;2070875;28;20230;-48
2021/04/15 04:48:51;;;;;;;2.45;2.25;;;;;20.30;101840.00;;;;2079135;28;20225;-49
2021/04/15 04:50:19;;;;;;;3.40;2.78;;;;;20.30;101843.00;;;;2065097;28;20219;-49
2021/04/15 04:51:20;;;;;;;2.70;2.40;;;;;20.30;101849.00;;;;2064918;28;21093;-49
2021/04/15 04:52:27;;;;;;;3.67;2.67;;;;;20.30;101845.00;;;;2061848;28;20330;-47
2021/04/15 04:53:32;;;;;;;2.67;2.47;;;;;20.30;101851.00;;;;2066565;28;20254;-49
2021/04/15 04:54:32;;;;;;;4.55;2.80;;;;;20.30;101845.00;;;;2061885;28;20231;-49
2021/04/15 04:55:56;;;;;;;2.60;2.30;;;;;20.30;101842.00;;;;2075973;28;20210;-47
2021/04/15 04:57:26;;;;;;;3.20;2.47;;;;;20.30;101847.00;;;;2065202;28;20656;-49
2021/04/15 04:58:26;;;;;;;2.67;2.45;;;;;20.30;101847.00;;;;2064812;28;20913;-48
2021/04/15 04:59:30;;;;;;;2.80;2.60;;;;;20.30;101847.00;;;;2077805;28;20214;-48
2021/04/15 05:00:39;;;;;;;2.85;2.55;;;;;20.30;101846.00;;;;2078295;28;20224;-48
2021/04/15 05:01:41;;;;;;;2.65;2.42;;;;;20.30;101845.00;;;;2070753;28;20273;-48
2021/04/15 05:02:42;;;;;;;3.10;2.80;;;;;20.20;101846.00;;;;2065767;28;20215;-49
2021/04/15 05:03:42;;;;;;;2.77;2.20;;;;;20.30;101850.00;;;;2062262;28;20244;-49
2021/04/15 05:04:43;;;;;;;4.80;3.00;;;;;20.30;101804.00;;;;2068842;28;20587;-49
2021/04/15 05:05:43;;;;;;;2.40;2.20;;;;;20.30;101851.00;;;;2069520;28;20250;-49
2021/04/15 05:06:44;;;;;;;2.83;2.20;;;;;20.30;101851.00;;;;2070970;28;20234;-49
2021/04/15 05:07:44;;;;;;;2.50;2.30;;;;;20.30;101849.00;;;;2061926;28;20243;-49
2021/04/15 05:09:16;;;;;;;3.93;2.60;;;;;20.30;101848.00;;;;2061641;28;20696;-46
2021/04/15 05:10:18;;;;;;;3.65;2.63;;;;;20.30;101861.00;;;;2060224;28;20363;-49
2021/04/15 05:11:19;;;;;;;2.40;2.20;;;;;20.30;101862.00;;;;2071031;28;20216;-49
2021/04/15 05:12:21;;;;;;;2.60;2.20;;;;;20.30;101854.00;;;;2069425;28;20346;-49
2021/04/15 05:13:24;;;;;;;2.20;2.10;;;;;20.30;101859.00;;;;2069156;28;20747;-49
2021/04/15 05:14:26;;;;;;;3.10;2.78;;;;;20.40;101863.00;;;;2060053;28;20212;-49
2021/04/15 05:15:26;;;;;;;3.05;2.75;;;;;20.40;101865.00;;;;2063277;28;20246;-49
2021/04/15 05:16:28;;;;;;;2.50;2.27;;;;;20.40;101848.00;;;;2072205;28;20566;-49
2021/04/15 05:17:30;;;;;;;2.70;2.50;;;;;20.40;101858.00;;;;2066639;28;20226;-51
2021/04/15 05:18:31;;;;;;;2.90;2.70;;;;;20.40;101859.00;;;;2050234;28;20271;-49
2021/04/15 05:19:33;;;;;;;2.43;2.10;;;;;20.40;101859.00;;;;2052111;28;20223;-47
2021/04/15 05:20:34;;;;;;;2.38;2.15;;;;;20.40;101859.00;;;;2069814;28;20214;-48
2021/04/15 05:21:34;;;;;;;2.47;2.27;;;;;20.50;101861.00;;;;2069532;28;20835;-49
2021/04/15 05:22:43;;;;;;;2.23;2.03;;;;;20.50;101861.00;;;;2071868;28;20215;-48
2021/04/15 05:24:07;;;;;;;2.25;2.05;;;;;20.50;101857.00;;;;2058043;28;20906;-49
2021/04/15 05:25:16;;;;;;;2.42;2.22;;;;;20.50;101864.00;;;;2059510;28;20208;-48
2021/04/15 05:26:22;;;;;;;2.90;2.70;;;;;20.50;101861.00;;;;2062023;28;20211;-49
2021/04/15 05:27:22;;;;;;;2.50;2.30;;;;;20.50;101864.00;;;;2056004;28;20220;-49
2021/04/15 05:28:22;;;;;;;3.07;2.60;;;;;20.50;101859.00;;;;2053662;28;20307;-49